sensor_id;sensor_type;location;lat;lon;timestamp;P1;durP1;ratioP1;P2;durP2;ratioP2
34019;SDS011;20895;51.034;3.742;2023-12-22T00:01:39;10.57;;;5.28;;
34019;SDS011;20895;51.034;3.742;2023-12-22T00:04:04;11.60;;;5.18;;
34019;SDS011;20895;51.034;3.742;2023-12-22T00:06:31;12.35;;;5.95;;
34019;SDS011;20895;51.034;3.742;2023-12-22T00:08:57;13.07;;;4.68;;
34019;SDS011;20895;51.034;3.742;2023-12-22T00:11:22;13.35;;;4.25;;
34019;SDS011;20895;51.034;3.742;2023-12-22T00:13:47;17.27;;;4.28;;
34019;SDS011;20895;51.034;3.742;2023-12-22T00:16:12;14.27;;;4.90;;
34019;SDS011;20895;51.034;3.742;2023-12-22T00:18:37;14.57;;;4.05;;
34019;SDS011;20895;51.034;3.742;2023-12-22T00:21:03;25.23;;;5.18;;
34019;SDS011;20895;51.034;3.742;2023-12-22T00:23:28;16.45;;;4.57;;
34019;SDS011;20895;51.034;3.742;2023-12-22T00:25:54;21.02;;;4.70;;
34019;SDS011;20895;51.034;3.742;2023-12-22T00:28:19;22.20;;;5.38;;
34019;SDS011;20895;51.034;3.742;2023-12-22T00:30:44;17.92;;;15.07;;
34019;SDS011;20895;51.034;3.742;2023-12-22T00:33:09;15.30;;;6.80;;
34019;SDS011;20895;51.034;3.742;2023-12-22T00:35:34;20.17;;;4.65;;
34019;SDS011;20895;51.034;3.742;2023-12-22T00:38:00;7.90;;;4.60;;
34019;SDS011;20895;51.034;3.742;2023-12-22T00:40:26;10.90;;;9.75;;
34019;SDS011;20895;51.034;3.742;2023-12-22T00:42:51;13.02;;;4.25;;
34019;SDS011;20895;51.034;3.742;2023-12-22T00:45:16;13.15;;;3.67;;
34019;SDS011;20895;51.034;3.742;2023-12-22T00:47:41;20.08;;;5.57;;
34019;SDS011;20895;51.034;3.742;2023-12-22T00:50:07;14.27;;;4.45;;
34019;SDS011;20895;51.034;3.742;2023-12-22T00:52:33;11.48;;;4.53;;
34019;SDS011;20895;51.034;3.742;2023-12-22T00:54:58;19.38;;;7.32;;
34019;SDS011;20895;51.034;3.742;2023-12-22T00:57:23;12.82;;;4.50;;
34019;SDS011;20895;51.034;3.742;2023-12-22T00:59:49;9.73;;;3.00;;
34019;SDS011;20895;51.034;3.742;2023-12-22T01:02:14;15.27;;;3.80;;
34019;SDS011;20895;51.034;3.742;2023-12-22T01:04:40;13.00;;;3.92;;
34019;SDS011;20895;51.034;3.742;2023-12-22T01:07:07;12.32;;;4.30;;
34019;SDS011;20895;51.034;3.742;2023-12-22T01:09:32;12.75;;;4.43;;
34019;SDS011;20895;51.034;3.742;2023-12-22T01:11:57;16.23;;;4.57;;
34019;SDS011;20895;51.034;3.742;2023-12-22T01:14:24;18.65;;;5.97;;
34019;SDS011;20895;51.034;3.742;2023-12-22T01:16:49;14.55;;;4.57;;
34019;SDS011;20895;51.034;3.742;2023-12-22T01:19:14;19.30;;;5.15;;
34019;SDS011;20895;51.034;3.742;2023-12-22T01:21:39;12.73;;;3.97;;
34019;SDS011;20895;51.034;3.742;2023-12-22T01:24:05;14.98;;;4.38;;
34019;SDS011;20895;51.034;3.742;2023-12-22T01:26:30;15.77;;;4.43;;
34019;SDS011;20895;51.034;3.742;2023-12-22T01:28:55;10.50;;;4.07;;
34019;SDS011;20895;51.034;3.742;2023-12-22T01:31:20;20.45;;;4.80;;
34019;SDS011;20895;51.034;3.742;2023-12-22T01:33:46;17.88;;;4.18;;
34019;SDS011;20895;51.034;3.742;2023-12-22T01:36:11;15.07;;;4.75;;
34019;SDS011;20895;51.034;3.742;2023-12-22T01:38:36;16.65;;;3.78;;
34019;SDS011;20895;51.034;3.742;2023-12-22T01:41:01;12.90;;;3.90;;
34019;SDS011;20895;51.034;3.742;2023-12-22T01:43:26;8.00;;;2.97;;
34019;SDS011;20895;51.034;3.742;2023-12-22T01:45:52;10.13;;;2.80;;
34019;SDS011;20895;51.034;3.742;2023-12-22T01:48:19;11.60;;;3.70;;
34019;SDS011;20895;51.034;3.742;2023-12-22T01:50:46;13.30;;;4.82;;
34019;SDS011;20895;51.034;3.742;2023-12-22T01:53:11;12.75;;;3.58;;
34019;SDS011;20895;51.034;3.742;2023-12-22T01:55:36;12.07;;;3.70;;
34019;SDS011;20895;51.034;3.742;2023-12-22T01:58:02;7.68;;;2.50;;
34019;SDS011;20895;51.034;3.742;2023-12-22T02:00:27;9.23;;;3.60;;
34019;SDS011;20895;51.034;3.742;2023-12-22T02:02:52;8.38;;;2.72;;
34019;SDS011;20895;51.034;3.742;2023-12-22T02:05:18;8.30;;;3.00;;
34019;SDS011;20895;51.034;3.742;2023-12-22T02:07:43;9.65;;;2.08;;
34019;SDS011;20895;51.034;3.742;2023-12-22T02:10:08;6.18;;;1.95;;
34019;SDS011;20895;51.034;3.742;2023-12-22T02:12:34;11.50;;;3.40;;
34019;SDS011;20895;51.034;3.742;2023-12-22T02:14:59;8.05;;;3.97;;
34019;SDS011;20895;51.034;3.742;2023-12-22T02:17:48;12.27;;;10.88;;
34019;SDS011;20895;51.034;3.742;2023-12-22T02:20:10;11.82;;;4.07;;
34019;SDS011;20895;51.034;3.742;2023-12-22T02:22:36;13.95;;;5.82;;
34019;SDS011;20895;51.034;3.742;2023-12-22T02:25:01;10.73;;;2.78;;
34019;SDS011;20895;51.034;3.742;2023-12-22T02:29:54;13.55;;;5.28;;
34019;SDS011;20895;51.034;3.742;2023-12-22T02:32:23;10.52;;;4.00;;
34019;SDS011;20895;51.034;3.742;2023-12-22T02:34:50;15.90;;;5.82;;
34019;SDS011;20895;51.034;3.742;2023-12-22T02:37:18;12.00;;;4.70;;
34019;SDS011;20895;51.034;3.742;2023-12-22T02:39:45;10.25;;;5.03;;
34019;SDS011;20895;51.034;3.742;2023-12-22T02:42:10;18.73;;;5.28;;
34019;SDS011;20895;51.034;3.742;2023-12-22T02:44:36;15.60;;;6.15;;
34019;SDS011;20895;51.034;3.742;2023-12-22T02:47:02;12.40;;;4.95;;
34019;SDS011;20895;51.034;3.742;2023-12-22T02:49:28;19.98;;;6.00;;
34019;SDS011;20895;51.034;3.742;2023-12-22T02:51:53;13.85;;;4.10;;
34019;SDS011;20895;51.034;3.742;2023-12-22T02:54:18;17.52;;;5.60;;
34019;SDS011;20895;51.034;3.742;2023-12-22T02:56:45;13.90;;;5.28;;
34019;SDS011;20895;51.034;3.742;2023-12-22T02:59:10;19.40;;;5.20;;
34019;SDS011;20895;51.034;3.742;2023-12-22T03:01:35;15.80;;;6.20;;
34019;SDS011;20895;51.034;3.742;2023-12-22T03:04:01;17.17;;;5.07;;
34019;SDS011;20895;51.034;3.742;2023-12-22T03:06:26;19.58;;;5.45;;
34019;SDS011;20895;51.034;3.742;2023-12-22T03:08:51;18.35;;;5.50;;
34019;SDS011;20895;51.034;3.742;2023-12-22T03:11:16;16.27;;;4.78;;
34019;SDS011;20895;51.034;3.742;2023-12-22T03:13:42;14.93;;;5.32;;
34019;SDS011;20895;51.034;3.742;2023-12-22T03:16:10;11.25;;;6.75;;
34019;SDS011;20895;51.034;3.742;2023-12-22T03:18:37;13.90;;;12.30;;
34019;SDS011;20895;51.034;3.742;2023-12-22T03:21:02;22.83;;;10.55;;
34019;SDS011;20895;51.034;3.742;2023-12-22T03:23:27;21.20;;;17.80;;
34019;SDS011;20895;51.034;3.742;2023-12-22T03:25:53;18.88;;;4.80;;
34019;SDS011;20895;51.034;3.742;2023-12-22T03:28:18;16.98;;;5.63;;
34019;SDS011;20895;51.034;3.742;2023-12-22T03:30:43;22.90;;;6.90;;
34019;SDS011;20895;51.034;3.742;2023-12-22T03:33:08;25.85;;;5.57;;
34019;SDS011;20895;51.034;3.742;2023-12-22T03:35:33;23.23;;;7.47;;
34019;SDS011;20895;51.034;3.742;2023-12-22T03:37:59;26.15;;;6.88;;
34019;SDS011;20895;51.034;3.742;2023-12-22T03:40:24;20.83;;;6.22;;
34019;SDS011;20895;51.034;3.742;2023-12-22T03:42:49;22.73;;;6.15;;
34019;SDS011;20895;51.034;3.742;2023-12-22T03:45:15;24.80;;;6.35;;
34019;SDS011;20895;51.034;3.742;2023-12-22T03:47:40;27.40;;;6.28;;
34019;SDS011;20895;51.034;3.742;2023-12-22T03:50:05;24.17;;;7.40;;
34019;SDS011;20895;51.034;3.742;2023-12-22T03:52:32;22.92;;;6.30;;
34019;SDS011;20895;51.034;3.742;2023-12-22T03:54:57;26.85;;;7.10;;
34019;SDS011;20895;51.034;3.742;2023-12-22T03:57:22;22.33;;;6.50;;
34019;SDS011;20895;51.034;3.742;2023-12-22T03:59:47;19.42;;;7.43;;
34019;SDS011;20895;51.034;3.742;2023-12-22T04:02:13;23.38;;;5.82;;
34019;SDS011;20895;51.034;3.742;2023-12-22T04:04:38;19.33;;;6.63;;
34019;SDS011;20895;51.034;3.742;2023-12-22T04:07:03;22.10;;;6.13;;
34019;SDS011;20895;51.034;3.742;2023-12-22T04:09:28;19.02;;;7.10;;
34019;SDS011;20895;51.034;3.742;2023-12-22T04:11:54;24.70;;;7.75;;
34019;SDS011;20895;51.034;3.742;2023-12-22T04:14:19;20.58;;;7.80;;
34019;SDS011;20895;51.034;3.742;2023-12-22T04:16:44;14.35;;;5.60;;
34019;SDS011;20895;51.034;3.742;2023-12-22T04:19:10;29.30;;;6.22;;
34019;SDS011;20895;51.034;3.742;2023-12-22T04:21:35;28.58;;;7.95;;
34019;SDS011;20895;51.034;3.742;2023-12-22T04:24:01;22.13;;;6.63;;
34019;SDS011;20895;51.034;3.742;2023-12-22T04:26:26;13.90;;;6.57;;
34019;SDS011;20895;51.034;3.742;2023-12-22T04:28:51;28.73;;;6.07;;
34019;SDS011;20895;51.034;3.742;2023-12-22T04:31:16;17.15;;;4.53;;
34019;SDS011;20895;51.034;3.742;2023-12-22T04:33:41;14.77;;;5.35;;
34019;SDS011;20895;51.034;3.742;2023-12-22T04:36:07;22.73;;;7.47;;
34019;SDS011;20895;51.034;3.742;2023-12-22T04:38:32;19.90;;;6.07;;
34019;SDS011;20895;51.034;3.742;2023-12-22T04:40:57;22.88;;;4.70;;
34019;SDS011;20895;51.034;3.742;2023-12-22T04:43:22;19.90;;;4.93;;
34019;SDS011;20895;51.034;3.742;2023-12-22T04:45:48;21.20;;;5.00;;
34019;SDS011;20895;51.034;3.742;2023-12-22T04:48:13;20.20;;;5.32;;
34019;SDS011;20895;51.034;3.742;2023-12-22T04:50:38;18.35;;;5.05;;
34019;SDS011;20895;51.034;3.742;2023-12-22T04:53:03;24.08;;;5.22;;
34019;SDS011;20895;51.034;3.742;2023-12-22T04:55:29;16.85;;;4.90;;
34019;SDS011;20895;51.034;3.742;2023-12-22T04:57:54;22.27;;;5.05;;
34019;SDS011;20895;51.034;3.742;2023-12-22T05:00:19;22.40;;;5.57;;
34019;SDS011;20895;51.034;3.742;2023-12-22T05:02:44;17.27;;;5.25;;
34019;SDS011;20895;51.034;3.742;2023-12-22T05:05:10;20.83;;;5.25;;
34019;SDS011;20895;51.034;3.742;2023-12-22T05:07:36;20.55;;;5.20;;
34019;SDS011;20895;51.034;3.742;2023-12-22T05:10:02;18.65;;;5.30;;
34019;SDS011;20895;51.034;3.742;2023-12-22T05:12:28;18.20;;;5.68;;
34019;SDS011;20895;51.034;3.742;2023-12-22T05:14:53;12.55;;;5.22;;
34019;SDS011;20895;51.034;3.742;2023-12-22T05:17:19;13.00;;;4.45;;
34019;SDS011;20895;51.034;3.742;2023-12-22T05:19:44;18.75;;;4.13;;
34019;SDS011;20895;51.034;3.742;2023-12-22T05:22:10;15.80;;;4.75;;
34019;SDS011;20895;51.034;3.742;2023-12-22T05:24:36;19.85;;;8.02;;
34019;SDS011;20895;51.034;3.742;2023-12-22T05:27:01;12.32;;;3.97;;
34019;SDS011;20895;51.034;3.742;2023-12-22T05:29:27;18.75;;;5.32;;
34019;SDS011;20895;51.034;3.742;2023-12-22T05:31:52;22.23;;;5.93;;
34019;SDS011;20895;51.034;3.742;2023-12-22T05:34:17;18.45;;;5.43;;
34019;SDS011;20895;51.034;3.742;2023-12-22T05:36:42;23.85;;;7.15;;
34019;SDS011;20895;51.034;3.742;2023-12-22T05:39:08;19.67;;;5.10;;
34019;SDS011;20895;51.034;3.742;2023-12-22T05:41:34;18.65;;;4.22;;
34019;SDS011;20895;51.034;3.742;2023-12-22T05:44:01;24.27;;;4.97;;
34019;SDS011;20895;51.034;3.742;2023-12-22T05:46:27;23.77;;;5.90;;
34019;SDS011;20895;51.034;3.742;2023-12-22T05:48:52;11.05;;;4.07;;
34019;SDS011;20895;51.034;3.742;2023-12-22T05:51:17;21.23;;;4.95;;
34019;SDS011;20895;51.034;3.742;2023-12-22T05:53:42;11.73;;;5.85;;
34019;SDS011;20895;51.034;3.742;2023-12-22T05:56:17;9.38;;;3.88;;
34019;SDS011;20895;51.034;3.742;2023-12-22T05:58:44;17.85;;;4.72;;
34019;SDS011;20895;51.034;3.742;2023-12-22T06:01:13;17.13;;;4.28;;
34019;SDS011;20895;51.034;3.742;2023-12-22T06:03:39;9.88;;;5.53;;
34019;SDS011;20895;51.034;3.742;2023-12-22T06:06:05;9.52;;;4.65;;
34019;SDS011;20895;51.034;3.742;2023-12-22T06:08:30;12.05;;;3.88;;
34019;SDS011;20895;51.034;3.742;2023-12-22T06:10:56;11.85;;;3.00;;
34019;SDS011;20895;51.034;3.742;2023-12-22T06:13:21;16.30;;;5.78;;
34019;SDS011;20895;51.034;3.742;2023-12-22T06:15:46;9.82;;;3.38;;
34019;SDS011;20895;51.034;3.742;2023-12-22T06:18:11;8.75;;;3.22;;
34019;SDS011;20895;51.034;3.742;2023-12-22T06:20:37;8.48;;;2.88;;
34019;SDS011;20895;51.034;3.742;2023-12-22T06:23:02;10.85;;;3.97;;
34019;SDS011;20895;51.034;3.742;2023-12-22T06:25:29;9.73;;;4.07;;
34019;SDS011;20895;51.034;3.742;2023-12-22T06:27:54;10.13;;;3.80;;
34019;SDS011;20895;51.034;3.742;2023-12-22T06:30:19;8.27;;;3.63;;
34019;SDS011;20895;51.034;3.742;2023-12-22T06:32:45;9.65;;;3.15;;
34019;SDS011;20895;51.034;3.742;2023-12-22T06:35:10;8.38;;;2.80;;
34019;SDS011;20895;51.034;3.742;2023-12-22T06:37:35;11.43;;;3.30;;
34019;SDS011;20895;51.034;3.742;2023-12-22T06:40:00;9.20;;;3.42;;
34019;SDS011;20895;51.034;3.742;2023-12-22T06:42:26;12.55;;;3.22;;
34019;SDS011;20895;51.034;3.742;2023-12-22T06:44:51;14.52;;;4.05;;
34019;SDS011;20895;51.034;3.742;2023-12-22T06:47:16;13.52;;;3.70;;
34019;SDS011;20895;51.034;3.742;2023-12-22T06:49:41;10.30;;;3.40;;
34019;SDS011;20895;51.034;3.742;2023-12-22T06:52:07;10.60;;;3.15;;
34019;SDS011;20895;51.034;3.742;2023-12-22T06:54:32;12.20;;;3.63;;
34019;SDS011;20895;51.034;3.742;2023-12-22T06:56:58;8.98;;;3.50;;
34019;SDS011;20895;51.034;3.742;2023-12-22T06:59:24;7.43;;;2.95;;
34019;SDS011;20895;51.034;3.742;2023-12-22T07:01:49;9.52;;;3.78;;
34019;SDS011;20895;51.034;3.742;2023-12-22T07:04:14;9.35;;;3.53;;
34019;SDS011;20895;51.034;3.742;2023-12-22T07:06:39;7.72;;;2.88;;
34019;SDS011;20895;51.034;3.742;2023-12-22T07:11:37;7.47;;;2.85;;
34019;SDS011;20895;51.034;3.742;2023-12-22T07:14:02;7.93;;;2.88;;
34019;SDS011;20895;51.034;3.742;2023-12-22T07:16:27;5.22;;;3.30;;
34019;SDS011;20895;51.034;3.742;2023-12-22T07:18:53;4.95;;;3.15;;
34019;SDS011;20895;51.034;3.742;2023-12-22T07:21:18;7.72;;;3.45;;
34019;SDS011;20895;51.034;3.742;2023-12-22T07:23:43;6.10;;;3.80;;
34019;SDS011;20895;51.034;3.742;2023-12-22T07:26:09;6.10;;;3.40;;
34019;SDS011;20895;51.034;3.742;2023-12-22T07:28:34;10.48;;;4.70;;
34019;SDS011;20895;51.034;3.742;2023-12-22T07:30:59;6.07;;;4.07;;
34019;SDS011;20895;51.034;3.742;2023-12-22T07:33:25;7.05;;;4.07;;
34019;SDS011;20895;51.034;3.742;2023-12-22T07:35:50;7.40;;;4.15;;
34019;SDS011;20895;51.034;3.742;2023-12-22T07:38:15;6.40;;;4.63;;
34019;SDS011;20895;51.034;3.742;2023-12-22T07:40:40;5.97;;;4.78;;
34019;SDS011;20895;51.034;3.742;2023-12-22T07:43:06;8.10;;;4.38;;
34019;SDS011;20895;51.034;3.742;2023-12-22T07:45:31;6.18;;;5.00;;
34019;SDS011;20895;51.034;3.742;2023-12-22T07:47:56;8.80;;;5.68;;
34019;SDS011;20895;51.034;3.742;2023-12-22T07:50:21;6.75;;;6.05;;
34019;SDS011;20895;51.034;3.742;2023-12-22T07:52:47;9.50;;;8.00;;
34019;SDS011;20895;51.034;3.742;2023-12-22T07:55:12;7.45;;;6.75;;
34019;SDS011;20895;51.034;3.742;2023-12-22T07:57:37;8.80;;;6.82;;
34019;SDS011;20895;51.034;3.742;2023-12-22T08:00:04;9.88;;;7.93;;
34019;SDS011;20895;51.034;3.742;2023-12-22T08:02:29;10.82;;;7.13;;
34019;SDS011;20895;51.034;3.742;2023-12-22T08:04:54;12.18;;;7.57;;
34019;SDS011;20895;51.034;3.742;2023-12-22T08:07:20;11.10;;;8.55;;
34019;SDS011;20895;51.034;3.742;2023-12-22T08:09:45;9.07;;;7.82;;
34019;SDS011;20895;51.034;3.742;2023-12-22T08:12:10;15.38;;;8.38;;
34019;SDS011;20895;51.034;3.742;2023-12-22T08:14:35;10.95;;;8.07;;
34019;SDS011;20895;51.034;3.742;2023-12-22T08:17:01;8.93;;;8.02;;
34019;SDS011;20895;51.034;3.742;2023-12-22T08:19:26;12.32;;;8.25;;
34019;SDS011;20895;51.034;3.742;2023-12-22T08:21:54;9.43;;;6.63;;
34019;SDS011;20895;51.034;3.742;2023-12-22T08:24:20;12.73;;;6.78;;
34019;SDS011;20895;51.034;3.742;2023-12-22T08:26:45;12.15;;;11.23;;
34019;SDS011;20895;51.034;3.742;2023-12-22T08:29:11;11.43;;;5.93;;
34019;SDS011;20895;51.034;3.742;2023-12-22T08:31:36;7.22;;;6.13;;
34019;SDS011;20895;51.034;3.742;2023-12-22T08:34:01;6.13;;;5.40;;
34019;SDS011;20895;51.034;3.742;2023-12-22T08:36:26;9.57;;;4.45;;
34019;SDS011;20895;51.034;3.742;2023-12-22T08:38:52;5.95;;;4.40;;
34019;SDS011;20895;51.034;3.742;2023-12-22T08:41:17;9.57;;;4.65;;
34019;SDS011;20895;51.034;3.742;2023-12-22T08:43:42;10.88;;;4.97;;
34019;SDS011;20895;51.034;3.742;2023-12-22T08:46:07;11.05;;;4.40;;
34019;SDS011;20895;51.034;3.742;2023-12-22T08:48:34;7.18;;;6.57;;
34019;SDS011;20895;51.034;3.742;2023-12-22T08:50:59;8.88;;;3.33;;
34019;SDS011;20895;51.034;3.742;2023-12-22T08:53:25;9.23;;;3.78;;
34019;SDS011;20895;51.034;3.742;2023-12-22T08:55:50;6.85;;;2.63;;
34019;SDS011;20895;51.034;3.742;2023-12-22T08:58:17;4.20;;;3.17;;
34019;SDS011;20895;51.034;3.742;2023-12-22T09:00:42;5.18;;;4.32;;
34019;SDS011;20895;51.034;3.742;2023-12-22T09:03:07;9.05;;;2.90;;
34019;SDS011;20895;51.034;3.742;2023-12-22T09:05:33;5.93;;;3.33;;
34019;SDS011;20895;51.034;3.742;2023-12-22T09:07:58;6.57;;;3.75;;
34019;SDS011;20895;51.034;3.742;2023-12-22T09:10:23;3.83;;;2.47;;
34019;SDS011;20895;51.034;3.742;2023-12-22T09:12:49;4.85;;;2.58;;
34019;SDS011;20895;51.034;3.742;2023-12-22T09:15:14;6.07;;;3.67;;
34019;SDS011;20895;51.034;3.742;2023-12-22T09:17:41;8.82;;;3.88;;
34019;SDS011;20895;51.034;3.742;2023-12-22T09:20:07;4.35;;;3.55;;
34019;SDS011;20895;51.034;3.742;2023-12-22T09:22:32;5.55;;;2.60;;
34019;SDS011;20895;51.034;3.742;2023-12-22T09:24:57;4.25;;;3.85;;
34019;SDS011;20895;51.034;3.742;2023-12-22T09:27:23;5.53;;;2.75;;
34019;SDS011;20895;51.034;3.742;2023-12-22T09:29:48;4.55;;;3.53;;
34019;SDS011;20895;51.034;3.742;2023-12-22T09:32:13;5.90;;;3.60;;
34019;SDS011;20895;51.034;3.742;2023-12-22T09:34:39;3.70;;;2.80;;
34019;SDS011;20895;51.034;3.742;2023-12-22T09:37:05;4.45;;;4.05;;
34019;SDS011;20895;51.034;3.742;2023-12-22T09:39:30;5.10;;;2.53;;
34019;SDS011;20895;51.034;3.742;2023-12-22T09:41:55;4.35;;;2.40;;
34019;SDS011;20895;51.034;3.742;2023-12-22T09:44:21;4.47;;;2.60;;
34019;SDS011;20895;51.034;3.742;2023-12-22T09:46:47;6.38;;;3.88;;
34019;SDS011;20895;51.034;3.742;2023-12-22T09:49:14;3.30;;;2.17;;
34019;SDS011;20895;51.034;3.742;2023-12-22T09:51:39;6.05;;;2.85;;
34019;SDS011;20895;51.034;3.742;2023-12-22T09:54:05;5.10;;;3.83;;
34019;SDS011;20895;51.034;3.742;2023-12-22T09:56:31;3.92;;;2.40;;
34019;SDS011;20895;51.034;3.742;2023-12-22T09:58:58;3.40;;;2.78;;
34019;SDS011;20895;51.034;3.742;2023-12-22T10:01:24;3.97;;;2.33;;
34019;SDS011;20895;51.034;3.742;2023-12-22T10:03:50;3.67;;;2.58;;
34019;SDS011;20895;51.034;3.742;2023-12-22T10:06:15;3.22;;;2.92;;
34019;SDS011;20895;51.034;3.742;2023-12-22T10:08:42;4.50;;;2.40;;
34019;SDS011;20895;51.034;3.742;2023-12-22T10:11:07;5.80;;;2.42;;
34019;SDS011;20895;51.034;3.742;2023-12-22T10:13:34;4.72;;;2.30;;
34019;SDS011;20895;51.034;3.742;2023-12-22T10:16:01;4.15;;;1.92;;
34019;SDS011;20895;51.034;3.742;2023-12-22T10:18:26;4.13;;;3.72;;
34019;SDS011;20895;51.034;3.742;2023-12-22T10:20:51;4.57;;;2.10;;
34019;SDS011;20895;51.034;3.742;2023-12-22T10:23:17;2.78;;;1.90;;
34019;SDS011;20895;51.034;3.742;2023-12-22T10:25:42;3.88;;;3.28;;
34019;SDS011;20895;51.034;3.742;2023-12-22T10:28:10;3.15;;;2.00;;
34019;SDS011;20895;51.034;3.742;2023-12-22T10:30:35;5.13;;;1.75;;
34019;SDS011;20895;51.034;3.742;2023-12-22T10:33:03;5.15;;;2.10;;
34019;SDS011;20895;51.034;3.742;2023-12-22T10:35:28;3.40;;;2.13;;
34019;SDS011;20895;51.034;3.742;2023-12-22T10:37:54;10.05;;;2.20;;
34019;SDS011;20895;51.034;3.742;2023-12-22T10:40:21;3.85;;;3.08;;
34019;SDS011;20895;51.034;3.742;2023-12-22T10:42:47;5.28;;;4.20;;
34019;SDS011;20895;51.034;3.742;2023-12-22T10:45:13;2.15;;;1.90;;
34019;SDS011;20895;51.034;3.742;2023-12-22T10:47:38;11.35;;;3.28;;
34019;SDS011;20895;51.034;3.742;2023-12-22T10:50:05;2.53;;;2.10;;
34019;SDS011;20895;51.034;3.742;2023-12-22T10:52:30;4.07;;;2.75;;
34019;SDS011;20895;51.034;3.742;2023-12-22T10:54:57;3.65;;;2.00;;
34019;SDS011;20895;51.034;3.742;2023-12-22T10:57:22;4.78;;;2.63;;
34019;SDS011;20895;51.034;3.742;2023-12-22T10:59:48;4.32;;;2.67;;
34019;SDS011;20895;51.034;3.742;2023-12-22T11:02:15;6.03;;;1.60;;
34019;SDS011;20895;51.034;3.742;2023-12-22T11:04:41;2.67;;;2.10;;
34019;SDS011;20895;51.034;3.742;2023-12-22T11:07:09;4.15;;;2.53;;
34019;SDS011;20895;51.034;3.742;2023-12-22T11:09:35;3.58;;;1.80;;
34019;SDS011;20895;51.034;3.742;2023-12-22T11:12:01;5.45;;;2.05;;
34019;SDS011;20895;51.034;3.742;2023-12-22T11:14:27;5.47;;;2.00;;
34019;SDS011;20895;51.034;3.742;2023-12-22T11:16:54;6.57;;;1.73;;
34019;SDS011;20895;51.034;3.742;2023-12-22T11:19:20;6.28;;;1.67;;
34019;SDS011;20895;51.034;3.742;2023-12-22T11:21:45;7.07;;;1.75;;
34019;SDS011;20895;51.034;3.742;2023-12-22T11:24:13;7.47;;;6.93;;
34019;SDS011;20895;51.034;3.742;2023-12-22T11:26:40;6.47;;;6.03;;
34019;SDS011;20895;51.034;3.742;2023-12-22T11:29:07;2.22;;;2.03;;
34019;SDS011;20895;51.034;3.742;2023-12-22T11:31:34;2.58;;;2.38;;
34019;SDS011;20895;51.034;3.742;2023-12-22T11:34:00;2.42;;;2.22;;
34019;SDS011;20895;51.034;3.742;2023-12-22T11:36:26;2.65;;;1.77;;
34019;SDS011;20895;51.034;3.742;2023-12-22T11:38:51;4.10;;;1.85;;
34019;SDS011;20895;51.034;3.742;2023-12-22T11:41:18;18.48;;;2.80;;
34019;SDS011;20895;51.034;3.742;2023-12-22T11:43:44;4.13;;;1.10;;
34019;SDS011;20895;51.034;3.742;2023-12-22T11:46:10;4.25;;;3.85;;
34019;SDS011;20895;51.034;3.742;2023-12-22T11:48:35;2.30;;;1.30;;
34019;SDS011;20895;51.034;3.742;2023-12-22T11:51:02;2.80;;;2.30;;
34019;SDS011;20895;51.034;3.742;2023-12-22T11:53:36;6.40;;;1.77;;
34019;SDS011;20895;51.034;3.742;2023-12-22T11:56:03;3.30;;;1.40;;
34019;SDS011;20895;51.034;3.742;2023-12-22T11:58:46;4.78;;;3.17;;
34019;SDS011;20895;51.034;3.742;2023-12-22T12:01:19;2.17;;;1.33;;
34019;SDS011;20895;51.034;3.742;2023-12-22T12:06:14;3.92;;;1.77;;
34019;SDS011;20895;51.034;3.742;2023-12-22T12:08:40;4.43;;;1.50;;
34019;SDS011;20895;51.034;3.742;2023-12-22T12:11:06;5.40;;;1.60;;
34019;SDS011;20895;51.034;3.742;2023-12-22T12:13:32;6.85;;;1.90;;
34019;SDS011;20895;51.034;3.742;2023-12-22T12:15:58;4.50;;;1.58;;
34019;SDS011;20895;51.034;3.742;2023-12-22T12:18:29;3.70;;;1.60;;
34019;SDS011;20895;51.034;3.742;2023-12-22T12:20:54;1.65;;;1.55;;
34019;SDS011;20895;51.034;3.742;2023-12-22T12:23:20;4.45;;;3.10;;
34019;SDS011;20895;51.034;3.742;2023-12-22T12:25:45;7.30;;;2.55;;
34019;SDS011;20895;51.034;3.742;2023-12-22T12:28:12;4.95;;;4.25;;
34019;SDS011;20895;51.034;3.742;2023-12-22T12:30:38;5.78;;;5.25;;
34019;SDS011;20895;51.034;3.742;2023-12-22T12:33:10;8.48;;;5.80;;
34019;SDS011;20895;51.034;3.742;2023-12-22T12:35:36;6.20;;;3.17;;
34019;SDS011;20895;51.034;3.742;2023-12-22T12:38:05;4.15;;;2.10;;
34019;SDS011;20895;51.034;3.742;2023-12-22T12:40:30;5.47;;;2.40;;
34019;SDS011;20895;51.034;3.742;2023-12-22T12:42:58;3.88;;;2.17;;
34019;SDS011;20895;51.034;3.742;2023-12-22T12:45:24;3.67;;;1.73;;
34019;SDS011;20895;51.034;3.742;2023-12-22T12:47:56;4.25;;;2.08;;
34019;SDS011;20895;51.034;3.742;2023-12-22T12:52:48;5.60;;;1.80;;
34019;SDS011;20895;51.034;3.742;2023-12-22T12:55:16;3.42;;;3.13;;
34019;SDS011;20895;51.034;3.742;2023-12-22T12:57:42;2.35;;;1.00;;
34019;SDS011;20895;51.034;3.742;2023-12-22T13:00:08;4.47;;;2.03;;
34019;SDS011;20895;51.034;3.742;2023-12-22T13:02:33;6.30;;;1.88;;
34019;SDS011;20895;51.034;3.742;2023-12-22T13:05:00;4.30;;;1.30;;
34019;SDS011;20895;51.034;3.742;2023-12-22T13:07:29;3.58;;;1.45;;
34019;SDS011;20895;51.034;3.742;2023-12-22T13:09:55;2.85;;;1.30;;
34019;SDS011;20895;51.034;3.742;2023-12-22T13:12:22;5.50;;;1.45;;
34019;SDS011;20895;51.034;3.742;2023-12-22T13:14:47;2.50;;;1.45;;
34019;SDS011;20895;51.034;3.742;2023-12-22T13:17:13;4.43;;;1.20;;
34019;SDS011;20895;51.034;3.742;2023-12-22T13:19:38;3.88;;;3.00;;
34019;SDS011;20895;51.034;3.742;2023-12-22T13:22:04;3.70;;;1.50;;
34019;SDS011;20895;51.034;3.742;2023-12-22T13:24:29;3.03;;;2.75;;
34019;SDS011;20895;51.034;3.742;2023-12-22T13:26:59;4.68;;;4.20;;
34019;SDS011;20895;51.034;3.742;2023-12-22T13:29:26;4.18;;;1.27;;
34019;SDS011;20895;51.034;3.742;2023-12-22T13:31:51;2.50;;;1.70;;
34019;SDS011;20895;51.034;3.742;2023-12-22T13:34:16;3.33;;;1.30;;
34019;SDS011;20895;51.034;3.742;2023-12-22T13:36:41;3.70;;;1.50;;
34019;SDS011;20895;51.034;3.742;2023-12-22T13:39:07;7.07;;;6.07;;
34019;SDS011;20895;51.034;3.742;2023-12-22T13:41:39;2.85;;;2.42;;
34019;SDS011;20895;51.034;3.742;2023-12-22T13:44:11;7.35;;;1.80;;
34019;SDS011;20895;51.034;3.742;2023-12-22T13:46:37;4.00;;;1.70;;
34019;SDS011;20895;51.034;3.742;2023-12-22T13:49:05;5.03;;;1.50;;
34019;SDS011;20895;51.034;3.742;2023-12-22T13:51:44;4.60;;;3.63;;
34019;SDS011;20895;51.034;3.742;2023-12-22T13:54:10;6.30;;;1.83;;
34019;SDS011;20895;51.034;3.742;2023-12-22T13:56:36;3.63;;;1.13;;
34019;SDS011;20895;51.034;3.742;2023-12-22T13:59:01;5.57;;;3.15;;
34019;SDS011;20895;51.034;3.742;2023-12-22T14:01:27;4.30;;;1.27;;
34019;SDS011;20895;51.034;3.742;2023-12-22T14:03:52;5.38;;;1.40;;
34019;SDS011;20895;51.034;3.742;2023-12-22T14:06:18;7.13;;;6.72;;
34019;SDS011;20895;51.034;3.742;2023-12-22T14:08:43;5.18;;;4.72;;
34019;SDS011;20895;51.034;3.742;2023-12-22T14:11:09;4.55;;;1.25;;
34019;SDS011;20895;51.034;3.742;2023-12-22T14:13:34;4.25;;;2.08;;
34019;SDS011;20895;51.034;3.742;2023-12-22T14:16:08;12.52;;;11.68;;
34019;SDS011;20895;51.034;3.742;2023-12-22T14:18:33;3.13;;;2.92;;
34019;SDS011;20895;51.034;3.742;2023-12-22T14:20:58;2.45;;;1.95;;
34019;SDS011;20895;51.034;3.742;2023-12-22T14:23:24;4.60;;;1.63;;
34019;SDS011;20895;51.034;3.742;2023-12-22T14:25:49;3.13;;;1.23;;
34019;SDS011;20895;51.034;3.742;2023-12-22T14:28:15;4.88;;;2.08;;
34019;SDS011;20895;51.034;3.742;2023-12-22T14:30:40;1.73;;;1.20;;
34019;SDS011;20895;51.034;3.742;2023-12-22T14:33:05;3.30;;;1.60;;
34019;SDS011;20895;51.034;3.742;2023-12-22T14:35:30;3.85;;;2.58;;
34019;SDS011;20895;51.034;3.742;2023-12-22T14:37:56;6.78;;;1.23;;
34019;SDS011;20895;51.034;3.742;2023-12-22T14:40:21;4.65;;;3.72;;
34019;SDS011;20895;51.034;3.742;2023-12-22T14:42:46;3.70;;;2.17;;